Time;durP1;ratioP1;P1;durP2;ratioP2;P2;SDS_P1;SDS_P2;PMS_P1;PMS_P2;Temp;Humidity;BMP_temperature;BMP_pressure;BME280_temperature;BME280_humidity;BME280_pressure;Samples;Min_cycle;Max_cycle;Signal;HPM_P1;HPM_P2
2020/12/25 00:01:01;;;;;;;2.73;2.23;;;;;;;2.43;83.30;98470.80;494320;1144;65201;-63
2020/12/25 00:11:13;;;;;;;2.60;1.90;;;;;;;2.37;83.05;98490.08;493364;1144;65426;-63
2020/12/25 00:21:18;;;;;;;2.73;2.10;;;;;;;2.32;83.34;98506.75;493621;1144;65710;-64
2020/12/25 00:31:28;;;;;;;2.50;2.30;;;;;;;2.33;83.69;98523.97;493904;1144;65164;-64
2020/12/25 00:41:32;;;;;;;3.43;2.50;;;;;;;2.31;83.19;98525.80;494186;1144;65194;-64
2020/12/25 00:51:36;;;;;;;3.03;2.40;;;;;;;2.35;83.38;98538.53;494293;1144;65121;-65
2020/12/25 01:01:40;;;;;;;2.50;2.30;;;;;;;2.36;83.23;98560.94;494076;1144;65133;-64
2020/12/25 01:11:50;;;;;;;2.55;2.15;;;;;;;2.30;83.26;98578.52;493294;1144;65305;-65
2020/12/25 01:21:54;;;;;;;2.30;2.10;;;;;;;2.36;82.90;98581.67;493471;1144;65184;-65
2020/12/25 01:31:58;;;;;;;3.63;2.87;;;;;;;2.36;83.11;98585.99;493236;1144;65180;-65
2020/12/25 01:42:09;;;;;;;3.80;3.27;;;;;;;2.35;83.14;98603.31;494275;1144;65197;-64
2020/12/25 01:52:14;;;;;;;2.70;2.40;;;;;;;2.36;83.49;98632.62;494318;1143;65107;-65
2020/12/25 02:02:18;;;;;;;2.73;2.47;;;;;;;2.40;83.25;98639.38;493784;1144;65133;-64
2020/12/25 02:12:28;;;;;;;2.50;2.30;;;;;;;2.41;83.30;98656.59;493971;1144;65116;-64
2020/12/25 02:22:32;;;;;;;2.30;1.80;;;;;;;2.45;83.76;98675.44;494194;1144;65146;-64
2020/12/25 02:32:36;;;;;;;3.33;2.47;;;;;;;2.51;83.38;98685.52;494181;1144;65111;-63
2020/12/25 02:42:49;;;;;;;3.17;1.90;;;;;;;2.59;83.81;98683.42;494423;1144;65187;-65
2020/12/25 02:52:53;;;;;;;2.67;2.00;;;;;;;2.63;83.68;98682.36;493505;1144;65245;-62
2020/12/25 03:02:56;;;;;;;2.33;2.07;;;;;;;2.65;83.29;98698.70;494060;1143;65108;-63
2020/12/25 03:13:10;;;;;;;1.57;1.43;;;;;;;2.68;83.54;98712.43;493809;1144;65566;-64
2020/12/25 03:23:14;;;;;;;1.93;1.43;;;;;;;2.62;83.88;98716.97;493677;1144;65502;-65
2020/12/25 03:33:18;;;;;;;2.10;1.80;;;;;;;2.62;84.27;98718.73;494020;1144;65246;-63
2020/12/25 03:43:26;;;;;;;2.97;2.27;;;;;;;2.40;84.38;98724.02;494100;1144;65148;-64
2020/12/25 03:53:30;;;;;;;2.55;1.45;;;;;;;2.40;84.67;98726.61;494316;1144;65333;-64
2020/12/25 04:03:34;;;;;;;2.50;2.17;;;;;;;2.40;84.90;98731.80;493979;1144;65225;-64
2020/12/25 04:13:46;;;;;;;3.60;1.93;;;;;;;2.40;85.29;98742.16;493174;1144;65200;-64
2020/12/25 04:23:50;;;;;;;2.30;1.83;;;;;;;2.42;85.40;98748.11;493502;1144;65244;-64
2020/12/25 04:33:55;;;;;;;2.73;2.53;;;;;;;2.40;85.11;98753.38;493381;1144;65108;-66
2020/12/25 04:44:07;;;;;;;3.23;2.33;;;;;;;2.38;85.41;98763.80;493361;1144;65149;-64
2020/12/25 04:54:11;;;;;;;3.43;2.43;;;;;;;2.36;85.42;98767.36;494182;1144;65133;-64
2020/12/25 05:04:22;;;;;;;4.10;3.00;;;;;;;2.32;85.20;98771.86;494024;1143;65139;-64
2020/12/25 05:14:28;;;;;;;3.70;3.23;;;;;;;2.33;85.72;98781.31;494132;1144;65142;-64
2020/12/25 05:24:38;;;;;;;6.07;3.97;;;;;;;2.34;85.28;98800.27;494100;1144;65203;-63
2020/12/25 05:34:44;;;;;;;3.47;3.03;;;;;;;2.35;85.67;98813.17;493947;1144;65127;-64
2020/12/25 05:44:49;;;;;;;3.83;3.53;;;;;;;2.36;85.36;98829.55;494105;1144;65342;-64
2020/12/25 05:54:56;;;;;;;2.93;2.67;;;;;;;2.32;85.51;98826.27;493563;1144;65617;-63
2020/12/25 06:05:00;;;;;;;3.47;3.17;;;;;;;2.34;85.27;98846.91;493378;1144;65249;-64
2020/12/25 06:15:08;;;;;;;4.13;3.20;;;;;;;2.32;85.08;98865.13;494159;1144;65177;-64
2020/12/25 06:25:15;;;;;;;5.15;2.85;;;;;;;2.24;85.39;98888.73;493915;1144;65107;-63
2020/12/25 06:35:28;;;;;;;3.42;3.12;;;;;;;2.19;85.21;98892.42;494311;1144;65208;-63
2020/12/25 06:45:32;;;;;;;2.50;2.10;;;;;;;2.15;85.53;98906.41;494079;1144;65182;-64
2020/12/25 06:55:43;;;;;;;3.33;1.80;;;;;;;2.14;84.46;98926.31;494078;1144;65220;-64
2020/12/25 07:05:49;;;;;;;2.93;1.97;;;;;;;2.15;84.26;98940.94;493646;1144;65101;-64
2020/12/25 07:15:54;;;;;;;2.47;1.93;;;;;;;2.06;84.20;98960.25;493308;1143;65113;-64
2020/12/25 07:26:00;;;;;;;4.40;2.33;;;;;;;2.01;83.87;98963.92;494154;1144;65235;-64
2020/12/25 07:36:10;;;;;;;3.73;2.77;;;;;;;2.00;83.81;98976.05;494313;1144;65542;-64
2020/12/25 07:46:14;;;;;;;6.03;5.00;;;;;;;1.98;83.86;98998.58;493731;1144;65226;-64
2020/12/25 07:56:21;;;;;;;4.63;3.80;;;;;;;2.00;83.90;99001.09;493852;1144;65210;-64
2020/12/25 08:06:27;;;;;;;5.67;2.85;;;;;;;2.12;83.82;99015.33;493382;1144;65218;-65
2020/12/25 08:16:32;;;;;;;3.10;2.80;;;;;;;2.21;83.41;99030.52;493520;1144;65571;-63
2020/12/25 08:26:38;;;;;;;3.37;2.97;;;;;;;2.26;83.67;99038.12;493302;1144;65187;-63
2020/12/25 08:36:42;;;;;;;4.10;2.80;;;;;;;2.24;83.00;99049.36;493784;1144;65162;-64
2020/12/25 08:46:46;;;;;;;4.07;2.73;;;;;;;2.27;83.12;99063.95;494163;1144;65204;-64
2020/12/25 08:56:50;;;;;;;3.45;2.40;;;;;;;2.32;83.00;99067.22;493310;1144;65198;-63
2020/12/25 09:06:54;;;;;;;4.83;2.60;;;;;;;2.37;82.62;99064.45;493291;1144;65149;-64
2020/12/25 09:17:05;;;;;;;3.90;2.30;;;;;;;2.23;82.37;99078.76;493967;1144;65362;-65
2020/12/25 09:27:09;;;;;;;4.60;2.60;;;;;;;2.33;82.55;99086.19;493452;1144;65104;-63
2020/12/25 09:37:12;;;;;;;3.07;1.97;;;;;;;2.39;82.24;99096.33;493587;1144;65145;-64
2020/12/25 09:47:22;;;;;;;2.37;1.90;;;;;;;2.42;82.11;99100.53;494378;1144;65197;-64
2020/12/25 09:57:26;;;;;;;4.67;2.30;;;;;;;2.49;82.11;99104.58;493877;1144;65210;-64
2020/12/25 10:07:30;;;;;;;3.75;3.10;;;;;;;2.45;82.21;99108.20;493540;1144;65564;-64
2020/12/25 10:17:41;;;;;;;3.40;3.00;;;;;;;2.47;81.51;99104.63;493614;1144;65126;-63
2020/12/25 10:27:45;;;;;;;4.70;3.27;;;;;;;2.55;81.36;99108.69;493864;1144;65194;-64
2020/12/25 10:37:49;;;;;;;5.80;4.03;;;;;;;2.54;81.18;99127.73;493941;1144;65138;-64
2020/12/25 10:48:05;;;;;;;4.77;3.50;;;;;;;2.34;81.30;99129.33;494065;1144;65138;-63
2020/12/25 10:58:09;;;;;;;5.70;2.60;;;;;;;2.44;81.51;99116.89;494592;1143;65538;-63
2020/12/25 11:08:13;;;;;;;4.40;2.60;;;;;;;2.45;81.29;99129.77;494356;1144;65121;-64
2020/12/25 11:18:24;;;;;;;3.13;2.83;;;;;;;2.45;80.80;99128.94;493968;1144;65220;-64
2020/12/25 11:28:28;;;;;;;5.03;2.70;;;;;;;2.40;81.01;99131.70;493734;1144;65535;-64
2020/12/25 11:38:32;;;;;;;7.63;3.10;;;;;;;2.33;81.08;99133.69;493421;1144;65436;-65
2020/12/25 11:48:45;;;;;;;3.97;3.30;;;;;;;2.12;81.16;99142.24;493879;1144;65439;-64
2020/12/25 11:58:51;;;;;;;3.77;3.47;;;;;;;2.24;81.51;99144.38;494578;1144;65155;-64
2020/12/25 12:08:55;;;;;;;4.03;3.63;;;;;;;2.15;81.28;99155.94;493990;1144;65121;-64
2020/12/25 12:19:04;;;;;;;5.27;4.00;;;;;;;2.04;81.87;99156.30;494074;1144;65138;-64
2020/12/25 12:29:08;;;;;;;5.80;3.97;;;;;;;2.03;81.22;99164.16;494175;1144;65212;-64
2020/12/25 12:39:13;;;;;;;5.00;4.27;;;;;;;2.03;81.67;99174.51;494077;1144;65140;-64
2020/12/25 12:49:22;;;;;;;4.13;3.57;;;;;;;1.85;81.24;99176.83;494216;1144;65287;-64
2020/12/25 12:59:26;;;;;;;3.10;2.80;;;;;;;1.83;80.16;99183.81;493454;1144;65148;-63
2020/12/25 13:09:30;;;;;;;3.65;3.00;;;;;;;1.78;80.26;99191.73;493600;1144;65423;-63
2020/12/25 13:19:42;;;;;;;4.03;2.60;;;;;;;1.75;79.86;99202.20;493933;1144;65131;-63
2020/12/25 13:29:45;;;;;;;4.35;3.00;;;;;;;1.68;80.11;99211.92;494025;1144;65211;-64
2020/12/25 13:39:49;;;;;;;3.50;3.10;;;;;;;1.64;79.76;99232.78;493871;1144;65147;-63
2020/12/25 13:50:03;;;;;;;5.00;4.00;;;;;;;1.49;79.50;99239.30;494023;1143;65251;-64
2020/12/25 14:00:07;;;;;;;7.00;3.20;;;;;;;1.35;79.97;99258.70;494122;1144;65210;-64
2020/12/25 14:10:12;;;;;;;5.90;3.57;;;;;;;1.32;80.38;99266.53;494021;1144;65108;-64
2020/12/25 14:20:23;;;;;;;5.10;3.80;;;;;;;1.29;79.95;99270.98;494186;1144;65130;-64
2020/12/25 14:30:27;;;;;;;4.23;3.10;;;;;;;1.08;80.26;99287.09;493932;1144;65102;-64
2020/12/25 14:40:31;;;;;;;5.33;3.53;;;;;;;0.92;80.56;99299.62;494052;1144;65114;-64
2020/12/25 14:50:44;;;;;;;4.37;3.60;;;;;;;0.78;81.15;99300.03;493678;1144;65130;-63
2020/12/25 15:00:48;;;;;;;4.30;3.90;;;;;;;0.74;80.50;99306.16;493489;1144;65111;-64
2020/12/25 15:10:52;;;;;;;3.33;3.03;;;;;;;0.72;80.35;99317.45;493640;1144;65114;-64
2020/12/25 15:21:02;;;;;;;3.63;3.30;;;;;;;0.68;80.21;99338.19;494045;1144;65558;-64
2020/12/25 15:31:07;;;;;;;3.93;2.97;;;;;;;0.72;79.56;99327.80;493818;1144;65482;-63
2020/12/25 15:41:12;;;;;;;5.95;3.80;;;;;;;0.66;79.42;99327.05;493268;1144;65143;-64
2020/12/25 15:51:21;;;;;;;2.93;2.50;;;;;;;0.67;79.45;99338.25;494331;1144;65198;-64
2020/12/25 16:01:30;;;;;;;2.67;2.47;;;;;;;0.74;79.06;99333.77;494066;1144;65544;-65
2020/12/25 16:11:34;;;;;;;5.17;3.33;;;;;;;0.78;78.73;99340.53;494178;1144;65207;-65
2020/12/25 16:21:44;;;;;;;;;;;;;;;0.84;79.24;99354.13;494153;1144;65127;-64
2020/12/25 16:31:48;;;;;;;3.30;3.02;;;;;;;0.92;79.71;99340.98;493552;1144;65101;-65
2020/12/25 16:41:52;;;;;;;4.70;3.00;;;;;;;0.95;79.62;99350.40;493595;1144;65429;-64
2020/12/25 16:52:00;;;;;;;6.07;3.73;;;;;;;0.97;79.80;99353.78;493713;1144;65136;-65
2020/12/25 17:02:05;;;;;;;7.40;4.30;;;;;;;0.99;79.51;99352.03;493645;1144;65123;-64
2020/12/25 17:12:10;;;;;;;5.47;4.07;;;;;;;0.97;79.74;99366.71;493451;1144;65873;-65
2020/12/25 17:22:23;;;;;;;6.63;5.10;;;;;;;0.96;79.23;99371.05;485319;1144;10001775;-65
2020/12/25 17:32:28;;;;;;;9.43;6.45;;;;;;;0.97;79.44;99374.47;492887;1144;65116;-66
2020/12/25 17:42:32;;;;;;;6.10;5.00;;;;;;;1.00;80.05;99370.95;492944;1144;66605;-65
2020/12/25 17:52:39;;;;;;;6.70;4.70;;;;;;;0.95;79.52;99384.88;493511;1144;65181;-59
2020/12/25 18:02:43;;;;;;;9.90;5.50;;;;;;;0.96;79.95;99398.63;493115;1144;65169;-60
2020/12/25 18:12:47;;;;;;;10.17;5.43;;;;;;;0.96;79.97;99396.05;493101;1144;65101;-67
2020/12/25 18:22:56;;;;;;;8.50;5.27;;;;;;;0.96;80.26;99396.91;493188;1144;65146;-61
2020/12/25 18:33:00;;;;;;;7.93;5.93;;;;;;;0.92;79.81;99397.86;492859;1144;65214;-60
2020/12/25 18:43:04;;;;;;;7.95;5.25;;;;;;;0.93;80.27;99397.00;493007;1144;65141;-67
2020/12/25 18:53:15;;;;;;;11.67;4.30;;;;;;;0.95;79.79;99407.28;493933;1144;65197;-67
2020/12/25 19:03:19;;;;;;;8.95;5.30;;;;;;;0.92;79.68;99409.95;493367;1144;65237;-64
2020/12/25 19:13:23;;;;;;;9.97;5.43;;;;;;;0.90;80.07;99417.74;493142;1143;65345;-61
2020/12/25 19:23:35;;;;;;;6.30;4.13;;;;;;;0.86;80.36;99408.38;493278;1144;65111;-66
2020/12/25 19:33:39;;;;;;;8.07;5.97;;;;;;;0.85;80.04;99419.62;493441;1144;65111;-59
2020/12/25 19:43:43;;;;;;;9.67;5.27;;;;;;;0.80;81.24;99427.49;493332;1144;65778;-61
2020/12/25 19:53:55;;;;;;;7.70;5.05;;;;;;;0.81;80.60;99420.59;493461;1144;65207;-67
2020/12/25 20:04:01;;;;;;;7.57;5.43;;;;;;;0.75;81.67;99424.20;493910;1144;65849;-63
2020/12/25 20:14:05;;;;;;;8.05;5.60;;;;;;;0.77;81.47;99422.41;493812;1144;65162;-62
2020/12/25 20:24:12;;;;;;;5.97;4.90;;;;;;;0.78;81.77;99423.24;493276;1144;65493;-59
2020/12/25 20:34:16;;;;;;;10.80;6.50;;;;;;;0.78;81.47;99424.11;494051;1144;65522;-60
2020/12/25 20:44:20;;;;;;;9.27;6.53;;;;;;;0.76;81.63;99428.47;493758;1144;65134;-61
2020/12/25 20:54:35;;;;;;;10.15;6.40;;;;;;;0.73;81.17;99441.45;493963;1144;65209;-61
2020/12/25 21:04:39;;;;;;;7.30;5.83;;;;;;;0.78;81.01;99449.95;493469;1144;65178;-61
2020/12/25 21:14:43;;;;;;;9.30;6.77;;;;;;;0.76;80.94;99432.78;493577;1144;65127;-61
2020/12/25 21:24:53;;;;;;;7.43;4.73;;;;;;;0.70;81.48;99449.30;493786;1144;65333;-61
2020/12/25 21:34:57;;;;;;;7.80;5.40;;;;;;;0.68;81.90;99458.83;493304;1144;65117;-60
2020/12/25 21:45:01;;;;;;;8.73;6.30;;;;;;;0.66;81.10;99464.03;493660;1144;65935;-60
2020/12/25 21:55:13;;;;;;;7.80;5.97;;;;;;;0.64;80.73;99452.88;493533;1144;65183;-61
2020/12/25 22:05:17;;;;;;;7.23;4.87;;;;;;;0.61;80.62;99452.97;493167;1144;65210;-60
2020/12/25 22:15:21;;;;;;;6.37;5.30;;;;;;;0.45;80.50;99469.72;493581;1144;65177;-60
2020/12/25 22:25:33;;;;;;;6.57;4.77;;;;;;;0.44;80.84;99470.61;493486;1144;65564;-60
2020/12/25 22:35:37;;;;;;;7.80;3.80;;;;;;;0.41;80.31;99472.39;493846;1144;65181;-60
2020/12/25 22:45:42;;;;;;;5.63;3.70;;;;;;;0.36;80.62;99463.92;494221;1144;65204;-60
2020/12/25 22:55:55;;;;;;;3.40;2.73;;;;;;;0.25;81.06;99468.48;494331;1144;65204;-60
2020/12/25 23:05:59;;;;;;;4.60;2.97;;;;;;;0.16;81.01;99459.20;493216;1143;65209;-60
2020/12/25 23:16:03;;;;;;;3.30;2.40;;;;;;;0.12;80.33;99471.36;493617;1144;65123;-60
2020/12/25 23:26:16;;;;;;;5.07;3.10;;;;;;;0.10;79.79;99473.10;493696;1144;65423;-61
2020/12/25 23:36:22;;;;;;;5.60;3.63;;;;;;;0.05;80.20;99476.67;493488;1143;65113;-60
2020/12/25 23:46:26;;;;;;;3.63;2.63;;;;;;;0.05;79.84;99477.53;493400;1144;65426;-60
2020/12/25 23:56:37;;;;;;;7.23;2.60;;;;;;;-0.04;79.92;99483.77;494351;1144;65116;-61
